sensor_id;sensor_type;location;lat;lon;timestamp;pressure;altitude;pressure_sealevel;temperature;humidity
36972;BME280;40554;52.122;20.678;2023-01-16T00:00:54;99348.35;;;3.86;100.00
36972;BME280;40554;52.122;20.678;2023-01-16T00:03:11;99347.37;;;3.84;100.00
36972;BME280;40554;52.122;20.678;2023-01-16T00:05:29;99347.47;;;3.83;100.00
36972;BME280;40554;52.122;20.678;2023-01-16T00:07:45;99347.91;;;3.81;100.00
36972;BME280;40554;52.122;20.678;2023-01-16T00:10:04;99343.16;;;3.78;100.00
36972;BME280;40554;52.122;20.678;2023-01-16T00:12:21;99339.74;;;3.77;100.00
36972;BME280;40554;52.122;20.678;2023-01-16T00:14:38;99340.86;;;3.75;100.00
36972;BME280;40554;52.122;20.678;2023-01-16T00:16:55;99344.46;;;3.74;100.00
36972;BME280;40554;52.122;20.678;2023-01-16T00:19:12;99343.20;;;3.71;100.00
36972;BME280;40554;52.122;20.678;2023-01-16T00:21:29;99345.58;;;3.70;100.00
36972;BME280;40554;52.122;20.678;2023-01-16T00:23:47;99338.52;;;3.68;100.00
36972;BME280;40554;52.122;20.678;2023-01-16T00:26:08;99344.03;;;3.66;100.00
36972;BME280;40554;52.122;20.678;2023-01-16T00:28:28;99340.85;;;3.64;100.00
36972;BME280;40554;52.122;20.678;2023-01-16T00:30:45;99343.25;;;3.61;100.00
36972;BME280;40554;52.122;20.678;2023-01-16T00:33:03;99348.77;;;3.59;100.00
36972;BME280;40554;52.122;20.678;2023-01-16T00:35:20;99352.02;;;3.58;100.00
36972;BME280;40554;52.122;20.678;2023-01-16T00:37:37;99353.77;;;3.54;100.00
36972;BME280;40554;52.122;20.678;2023-01-16T00:39:54;99357.02;;;3.52;100.00
36972;BME280;40554;52.122;20.678;2023-01-16T00:42:11;99361.34;;;3.50;100.00
36972;BME280;40554;52.122;20.678;2023-01-16T00:44:28;99364.23;;;3.48;100.00
36972;BME280;40554;52.122;20.678;2023-01-16T00:46:45;99360.72;;;3.46;100.00
36972;BME280;40554;52.122;20.678;2023-01-16T00:49:02;99356.34;;;3.43;100.00
36972;BME280;40554;52.122;20.678;2023-01-16T00:51:19;99360.23;;;3.42;100.00
36972;BME280;40554;52.122;20.678;2023-01-16T00:53:35;99358.73;;;3.41;100.00
36972;BME280;40554;52.122;20.678;2023-01-16T00:55:52;99360.40;;;3.39;100.00
36972;BME280;40554;52.122;20.678;2023-01-16T00:58:09;99357.56;;;3.37;100.00
36972;BME280;40554;52.122;20.678;2023-01-16T01:00:27;99360.11;;;3.34;100.00
36972;BME280;40554;52.122;20.678;2023-01-16T01:02:43;99359.88;;;3.32;100.00
36972;BME280;40554;52.122;20.678;2023-01-16T01:05:00;99361.55;;;3.30;100.00
36972;BME280;40554;52.122;20.678;2023-01-16T01:07:17;99358.19;;;3.28;100.00
36972;BME280;40554;52.122;20.678;2023-01-16T01:09:34;99361.78;;;3.26;100.00
36972;BME280;40554;52.122;20.678;2023-01-16T01:11:52;99359.75;;;3.25;100.00
36972;BME280;40554;52.122;20.678;2023-01-16T01:14:09;99359.31;;;3.24;100.00
36972;BME280;40554;52.122;20.678;2023-01-16T01:16:25;99360.96;;;3.22;100.00
36972;BME280;40554;52.122;20.678;2023-01-16T01:18:43;99360.84;;;3.21;100.00
36972;BME280;40554;52.122;20.678;2023-01-16T01:21:17;99355.10;;;3.21;100.00
36972;BME280;40554;52.122;20.678;2023-01-16T01:23:35;99355.02;;;3.19;100.00
36972;BME280;40554;52.122;20.678;2023-01-16T01:25:52;99355.63;;;3.18;100.00
36972;BME280;40554;52.122;20.678;2023-01-16T01:28:09;99356.02;;;3.17;100.00
36972;BME280;40554;52.122;20.678;2023-01-16T01:30:26;99354.14;;;3.16;100.00
36972;BME280;40554;52.122;20.678;2023-01-16T01:32:43;99353.15;;;3.15;100.00
36972;BME280;40554;52.122;20.678;2023-01-16T01:35:00;99349.00;;;3.14;100.00
36972;BME280;40554;52.122;20.678;2023-01-16T01:37:17;99345.09;;;3.12;100.00
36972;BME280;40554;52.122;20.678;2023-01-16T01:39:34;99345.30;;;3.11;100.00
36972;BME280;40554;52.122;20.678;2023-01-16T01:41:51;99344.14;;;3.10;100.00
36972;BME280;40554;52.122;20.678;2023-01-16T01:44:49;99340.70;;;3.09;100.00
36972;BME280;40554;52.122;20.678;2023-01-16T01:47:07;99343.90;;;3.08;100.00
36972;BME280;40554;52.122;20.678;2023-01-16T01:49:28;99338.59;;;3.06;100.00
36972;BME280;40554;52.122;20.678;2023-01-16T01:51:46;99340.96;;;3.04;100.00
36972;BME280;40554;52.122;20.678;2023-01-16T01:54:07;99339.48;;;3.03;100.00
36972;BME280;40554;52.122;20.678;2023-01-16T01:56:36;99341.52;;;3.01;100.00
36972;BME280;40554;52.122;20.678;2023-01-16T01:59:01;99340.95;;;2.98;100.00
36972;BME280;40554;52.122;20.678;2023-01-16T02:01:19;99337.88;;;2.97;100.00
36972;BME280;40554;52.122;20.678;2023-01-16T02:03:42;99338.85;;;2.95;100.00
36972;BME280;40554;52.122;20.678;2023-01-16T02:06:07;99338.63;;;2.93;100.00
36972;BME280;40554;52.122;20.678;2023-01-16T02:08:30;99338.24;;;2.90;100.00
36972;BME280;40554;52.122;20.678;2023-01-16T02:10:52;99333.93;;;2.86;100.00
36972;BME280;40554;52.122;20.678;2023-01-16T02:13:11;99332.84;;;2.83;100.00
36972;BME280;40554;52.122;20.678;2023-01-16T02:15:29;99329.64;;;2.81;100.00
36972;BME280;40554;52.122;20.678;2023-01-16T02:17:46;99330.98;;;2.79;100.00
36972;BME280;40554;52.122;20.678;2023-01-16T02:20:25;99324.51;;;2.76;100.00
36972;BME280;40554;52.122;20.678;2023-01-16T02:25:36;99324.67;;;2.69;100.00
36972;BME280;40554;52.122;20.678;2023-01-16T02:36:43;99318.43;;;2.55;100.00
36972;BME280;40554;52.122;20.678;2023-01-16T02:41:53;99312.34;;;2.48;100.00
36972;BME280;40554;52.122;20.678;2023-01-16T02:47:14;99309.89;;;2.42;100.00
36972;BME280;40554;52.122;20.678;2023-01-16T02:52:19;99311.02;;;2.33;100.00
36972;BME280;40554;52.122;20.678;2023-01-16T02:54:55;99315.22;;;2.30;100.00
36972;BME280;40554;52.122;20.678;2023-01-16T02:57:20;99313.30;;;2.26;100.00
36972;BME280;40554;52.122;20.678;2023-01-16T02:59:40;99315.90;;;2.24;100.00
36972;BME280;40554;52.122;20.678;2023-01-16T03:02:00;99317.39;;;2.21;100.00
36972;BME280;40554;52.122;20.678;2023-01-16T03:07:02;99317.30;;;2.16;100.00
36972;BME280;40554;52.122;20.678;2023-01-16T03:14:37;99315.21;;;2.09;100.00
36972;BME280;40554;52.122;20.678;2023-01-16T03:25:18;99324.81;;;2.03;100.00
36972;BME280;40554;52.122;20.678;2023-01-16T03:28:13;99322.30;;;2.00;100.00
36972;BME280;40554;52.122;20.678;2023-01-16T03:30:39;99318.12;;;1.96;100.00
36972;BME280;40554;52.122;20.678;2023-01-16T03:33:17;99318.95;;;1.94;100.00
36972;BME280;40554;52.122;20.678;2023-01-16T03:35:45;99323.02;;;1.93;100.00
36972;BME280;40554;52.122;20.678;2023-01-16T03:38:11;99326.16;;;1.92;100.00
36972;BME280;40554;52.122;20.678;2023-01-16T03:40:32;99325.80;;;1.92;100.00
36972;BME280;40554;52.122;20.678;2023-01-16T03:42:56;99325.36;;;1.91;100.00
36972;BME280;40554;52.122;20.678;2023-01-16T03:45:28;99321.95;;;1.89;100.00
36972;BME280;40554;52.122;20.678;2023-01-16T03:47:54;99319.42;;;1.88;100.00
36972;BME280;40554;52.122;20.678;2023-01-16T03:50:14;99318.25;;;1.87;100.00
36972;BME280;40554;52.122;20.678;2023-01-16T03:52:41;99319.55;;;1.85;100.00
36972;BME280;40554;52.122;20.678;2023-01-16T03:57:59;99322.14;;;1.82;100.00
36972;BME280;40554;52.122;20.678;2023-01-16T04:00:19;99324.45;;;1.82;100.00
36972;BME280;40554;52.122;20.678;2023-01-16T04:03:16;99323.59;;;1.81;100.00
36972;BME280;40554;52.122;20.678;2023-01-16T04:08:22;99320.25;;;1.78;100.00
36972;BME280;40554;52.122;20.678;2023-01-16T04:10:45;99322.07;;;1.77;100.00
36972;BME280;40554;52.122;20.678;2023-01-16T04:13:10;99316.58;;;1.75;100.00
36972;BME280;40554;52.122;20.678;2023-01-16T04:15:29;99315.61;;;1.73;100.00
36972;BME280;40554;52.122;20.678;2023-01-16T04:17:48;99315.16;;;1.72;100.00
36972;BME280;40554;52.122;20.678;2023-01-16T04:20:07;99315.76;;;1.70;100.00
36972;BME280;40554;52.122;20.678;2023-01-16T04:22:27;99316.46;;;1.70;100.00
36972;BME280;40554;52.122;20.678;2023-01-16T04:24:44;99317.70;;;1.70;100.00
36972;BME280;40554;52.122;20.678;2023-01-16T04:27:01;99314.60;;;1.69;100.00
36972;BME280;40554;52.122;20.678;2023-01-16T04:29:18;99317.07;;;1.69;100.00
36972;BME280;40554;52.122;20.678;2023-01-16T04:31:35;99318.84;;;1.68;100.00
36972;BME280;40554;52.122;20.678;2023-01-16T04:33:51;99317.91;;;1.66;100.00
36972;BME280;40554;52.122;20.678;2023-01-16T04:36:09;99312.79;;;1.64;100.00
36972;BME280;40554;52.122;20.678;2023-01-16T04:38:26;99314.65;;;1.61;100.00
36972;BME280;40554;52.122;20.678;2023-01-16T04:40:43;99322.17;;;1.61;100.00
36972;BME280;40554;52.122;20.678;2023-01-16T04:43:00;99326.02;;;1.60;100.00
36972;BME280;40554;52.122;20.678;2023-01-16T04:45:17;99326.75;;;1.59;100.00
36972;BME280;40554;52.122;20.678;2023-01-16T04:47:34;99329.95;;;1.58;100.00
36972;BME280;40554;52.122;20.678;2023-01-16T04:49:51;99326.70;;;1.57;100.00
36972;BME280;40554;52.122;20.678;2023-01-16T04:52:10;99329.36;;;1.56;100.00
36972;BME280;40554;52.122;20.678;2023-01-16T04:54:28;99330.77;;;1.55;100.00
36972;BME280;40554;52.122;20.678;2023-01-16T04:56:45;99331.51;;;1.54;100.00
36972;BME280;40554;52.122;20.678;2023-01-16T04:59:05;99331.05;;;1.53;100.00
36972;BME280;40554;52.122;20.678;2023-01-16T05:01:23;99324.69;;;1.51;100.00
36972;BME280;40554;52.122;20.678;2023-01-16T05:03:40;99326.35;;;1.49;100.00
36972;BME280;40554;52.122;20.678;2023-01-16T05:05:57;99328.98;;;1.49;100.00
36972;BME280;40554;52.122;20.678;2023-01-16T05:08:14;99327.98;;;1.48;100.00
36972;BME280;40554;52.122;20.678;2023-01-16T05:10:33;99325.73;;;1.48;100.00
36972;BME280;40554;52.122;20.678;2023-01-16T05:12:50;99327.52;;;1.47;100.00
36972;BME280;40554;52.122;20.678;2023-01-16T05:15:08;99325.64;;;1.46;100.00
36972;BME280;40554;52.122;20.678;2023-01-16T05:17:25;99319.38;;;1.46;100.00
36972;BME280;40554;52.122;20.678;2023-01-16T05:19:43;99316.23;;;1.46;100.00
36972;BME280;40554;52.122;20.678;2023-01-16T05:22:00;99317.45;;;1.46;100.00
36972;BME280;40554;52.122;20.678;2023-01-16T05:24:17;99313.30;;;1.45;100.00
36972;BME280;40554;52.122;20.678;2023-01-16T05:26:34;99313.30;;;1.45;100.00
36972;BME280;40554;52.122;20.678;2023-01-16T05:28:51;99309.41;;;1.43;100.00
36972;BME280;40554;52.122;20.678;2023-01-16T05:31:08;99307.73;;;1.42;100.00
36972;BME280;40554;52.122;20.678;2023-01-16T05:33:25;99305.35;;;1.41;100.00
36972;BME280;40554;52.122;20.678;2023-01-16T05:35:42;99308.90;;;1.39;100.00
36972;BME280;40554;52.122;20.678;2023-01-16T05:37:59;99307.19;;;1.39;100.00
36972;BME280;40554;52.122;20.678;2023-01-16T05:40:16;99305.34;;;1.37;100.00
36972;BME280;40554;52.122;20.678;2023-01-16T05:42:33;99304.20;;;1.35;100.00
36972;BME280;40554;52.122;20.678;2023-01-16T05:44:51;99304.93;;;1.35;100.00
36972;BME280;40554;52.122;20.678;2023-01-16T05:47:08;99301.10;;;1.31;100.00
36972;BME280;40554;52.122;20.678;2023-01-16T05:49:25;99303.31;;;1.32;100.00
36972;BME280;40554;52.122;20.678;2023-01-16T05:51:42;99291.20;;;1.31;100.00
36972;BME280;40554;52.122;20.678;2023-01-16T05:53:59;99288.78;;;1.30;100.00
36972;BME280;40554;52.122;20.678;2023-01-16T05:56:19;99283.66;;;1.28;100.00
36972;BME280;40554;52.122;20.678;2023-01-16T05:58:37;99284.08;;;1.27;100.00
36972;BME280;40554;52.122;20.678;2023-01-16T06:00:54;99282.73;;;1.25;100.00
36972;BME280;40554;52.122;20.678;2023-01-16T06:03:11;99281.75;;;1.24;100.00
36972;BME280;40554;52.122;20.678;2023-01-16T06:05:28;99276.23;;;1.23;100.00
36972;BME280;40554;52.122;20.678;2023-01-16T06:07:45;99276.27;;;1.22;100.00
36972;BME280;40554;52.122;20.678;2023-01-16T06:10:03;99271.77;;;1.22;100.00
36972;BME280;40554;52.122;20.678;2023-01-16T06:12:20;99275.52;;;1.20;100.00
36972;BME280;40554;52.122;20.678;2023-01-16T06:14:37;99280.46;;;1.19;100.00
36972;BME280;40554;52.122;20.678;2023-01-16T06:16:54;99281.20;;;1.18;100.00
36972;BME280;40554;52.122;20.678;2023-01-16T06:19:11;99280.71;;;1.17;100.00
36972;BME280;40554;52.122;20.678;2023-01-16T06:21:28;99281.64;;;1.16;100.00
36972;BME280;40554;52.122;20.678;2023-01-16T06:23:45;99282.88;;;1.16;100.00
36972;BME280;40554;52.122;20.678;2023-01-16T06:26:02;99289.48;;;1.15;100.00
36972;BME280;40554;52.122;20.678;2023-01-16T06:28:22;99286.40;;;1.15;100.00
36972;BME280;40554;52.122;20.678;2023-01-16T06:30:39;99281.85;;;1.15;100.00
36972;BME280;40554;52.122;20.678;2023-01-16T06:32:56;99284.40;;;1.16;100.00
36972;BME280;40554;52.122;20.678;2023-01-16T06:35:13;99283.38;;;1.16;100.00
36972;BME280;40554;52.122;20.678;2023-01-16T06:37:30;99287.20;;;1.16;100.00
36972;BME280;40554;52.122;20.678;2023-01-16T06:39:47;99287.02;;;1.16;100.00
36972;BME280;40554;52.122;20.678;2023-01-16T06:42:04;99288.59;;;1.16;100.00
36972;BME280;40554;52.122;20.678;2023-01-16T06:44:21;99286.13;;;1.17;100.00
36972;BME280;40554;52.122;20.678;2023-01-16T06:46:38;99285.05;;;1.17;100.00
36972;BME280;40554;52.122;20.678;2023-01-16T06:48:56;99287.31;;;1.17;100.00
36972;BME280;40554;52.122;20.678;2023-01-16T06:51:13;99282.48;;;1.16;100.00
36972;BME280;40554;52.122;20.678;2023-01-16T06:53:30;99285.58;;;1.17;100.00
36972;BME280;40554;52.122;20.678;2023-01-16T06:55:47;99287.49;;;1.17;100.00
36972;BME280;40554;52.122;20.678;2023-01-16T06:58:04;99289.92;;;1.17;100.00
36972;BME280;40554;52.122;20.678;2023-01-16T07:00:21;99285.91;;;1.17;100.00
36972;BME280;40554;52.122;20.678;2023-01-16T07:02:38;99286.77;;;1.18;100.00
36972;BME280;40554;52.122;20.678;2023-01-16T07:04:56;99284.33;;;1.18;100.00
36972;BME280;40554;52.122;20.678;2023-01-16T07:07:13;99291.23;;;1.19;100.00
36972;BME280;40554;52.122;20.678;2023-01-16T07:09:30;99287.23;;;1.19;100.00
36972;BME280;40554;52.122;20.678;2023-01-16T07:11:47;99288.43;;;1.19;100.00
36972;BME280;40554;52.122;20.678;2023-01-16T07:14:04;99287.36;;;1.20;100.00
36972;BME280;40554;52.122;20.678;2023-01-16T07:19:41;99280.99;;;1.26;100.00
36972;BME280;40554;52.122;20.678;2023-01-16T07:22:17;99280.16;;;1.25;100.00
36972;BME280;40554;52.122;20.678;2023-01-16T07:24:53;99281.14;;;1.26;100.00
36972;BME280;40554;52.122;20.678;2023-01-16T07:27:13;99280.71;;;1.27;100.00
36972;BME280;40554;52.122;20.678;2023-01-16T07:29:32;99281.88;;;1.29;100.00
36972;BME280;40554;52.122;20.678;2023-01-16T07:31:49;99282.97;;;1.31;100.00
36972;BME280;40554;52.122;20.678;2023-01-16T07:34:06;99285.17;;;1.33;100.00
36972;BME280;40554;52.122;20.678;2023-01-16T07:36:23;99285.74;;;1.35;100.00
36972;BME280;40554;52.122;20.678;2023-01-16T07:38:40;99289.80;;;1.39;100.00
36972;BME280;40554;52.122;20.678;2023-01-16T07:40:57;99288.11;;;1.41;100.00
36972;BME280;40554;52.122;20.678;2023-01-16T07:43:14;99282.32;;;1.45;100.00
36972;BME280;40554;52.122;20.678;2023-01-16T07:45:31;99284.60;;;1.48;100.00
36972;BME280;40554;52.122;20.678;2023-01-16T07:47:48;99283.36;;;1.52;100.00
36972;BME280;40554;52.122;20.678;2023-01-16T07:50:05;99279.03;;;1.55;100.00
36972;BME280;40554;52.122;20.678;2023-01-16T07:52:22;99280.89;;;1.60;100.00
36972;BME280;40554;52.122;20.678;2023-01-16T07:54:39;99278.95;;;1.65;100.00
36972;BME280;40554;52.122;20.678;2023-01-16T07:56:57;99275.45;;;1.68;100.00
36972;BME280;40554;52.122;20.678;2023-01-16T07:59:15;99275.25;;;1.72;100.00
36972;BME280;40554;52.122;20.678;2023-01-16T08:01:32;99266.35;;;1.76;100.00
36972;BME280;40554;52.122;20.678;2023-01-16T08:03:49;99264.59;;;1.79;100.00
36972;BME280;40554;52.122;20.678;2023-01-16T08:06:08;99261.61;;;1.83;100.00
36972;BME280;40554;52.122;20.678;2023-01-16T08:08:25;99258.67;;;1.86;100.00
36972;BME280;40554;52.122;20.678;2023-01-16T08:10:42;99257.64;;;1.90;100.00
36972;BME280;40554;52.122;20.678;2023-01-16T08:12:59;99257.19;;;1.92;100.00
36972;BME280;40554;52.122;20.678;2023-01-16T08:15:16;99255.33;;;1.94;100.00
36972;BME280;40554;52.122;20.678;2023-01-16T08:17:33;99254.84;;;1.96;100.00
36972;BME280;40554;52.122;20.678;2023-01-16T08:19:51;99251.44;;;1.98;100.00
36972;BME280;40554;52.122;20.678;2023-01-16T08:22:07;99251.30;;;2.01;100.00
36972;BME280;40554;52.122;20.678;2023-01-16T08:24:25;99250.36;;;2.03;100.00
36972;BME280;40554;52.122;20.678;2023-01-16T08:26:42;99248.83;;;2.05;100.00
36972;BME280;40554;52.122;20.678;2023-01-16T08:28:59;99249.25;;;2.07;100.00
36972;BME280;40554;52.122;20.678;2023-01-16T08:31:19;99244.22;;;2.10;100.00
36972;BME280;40554;52.122;20.678;2023-01-16T08:33:36;99241.97;;;2.13;100.00
36972;BME280;40554;52.122;20.678;2023-01-16T08:35:56;99238.50;;;2.16;100.00
36972;BME280;40554;52.122;20.678;2023-01-16T08:38:13;99235.95;;;2.18;100.00
36972;BME280;40554;52.122;20.678;2023-01-16T08:40:30;99234.71;;;2.22;100.00
36972;BME280;40554;52.122;20.678;2023-01-16T08:42:47;99237.50;;;2.25;100.00
36972;BME280;40554;52.122;20.678;2023-01-16T08:45:23;99232.75;;;2.29;100.00
36972;BME280;40554;52.122;20.678;2023-01-16T08:48:00;99232.68;;;2.34;100.00
36972;BME280;40554;52.122;20.678;2023-01-16T08:50:35;99233.19;;;2.37;100.00
36972;BME280;40554;52.122;20.678;2023-01-16T08:53:11;99230.32;;;2.42;100.00
36972;BME280;40554;52.122;20.678;2023-01-16T08:55:28;99226.79;;;2.46;100.00
36972;BME280;40554;52.122;20.678;2023-01-16T08:57:45;99224.30;;;2.51;100.00
36972;BME280;40554;52.122;20.678;2023-01-16T09:00:06;99220.84;;;2.56;100.00
36972;BME280;40554;52.122;20.678;2023-01-16T09:02:24;99218.13;;;2.62;100.00
36972;BME280;40554;52.122;20.678;2023-01-16T09:04:42;99218.91;;;2.66;100.00
36972;BME280;40554;52.122;20.678;2023-01-16T09:07:00;99214.17;;;2.70;100.00
36972;BME280;40554;52.122;20.678;2023-01-16T09:09:17;99214.84;;;2.74;100.00
36972;BME280;40554;52.122;20.678;2023-01-16T09:11:34;99213.05;;;2.77;100.00
36972;BME280;40554;52.122;20.678;2023-01-16T09:14:10;99209.05;;;2.81;100.00
36972;BME280;40554;52.122;20.678;2023-01-16T09:16:40;99208.69;;;2.84;100.00
36972;BME280;40554;52.122;20.678;2023-01-16T09:18:57;99206.26;;;2.87;100.00
36972;BME280;40554;52.122;20.678;2023-01-16T09:21:15;99198.95;;;2.89;100.00
36972;BME280;40554;52.122;20.678;2023-01-16T09:23:32;99198.13;;;2.92;100.00
36972;BME280;40554;52.122;20.678;2023-01-16T09:25:49;99193.72;;;2.96;100.00
36972;BME280;40554;52.122;20.678;2023-01-16T09:28:06;99187.94;;;2.99;100.00
36972;BME280;40554;52.122;20.678;2023-01-16T09:30:23;99187.14;;;3.04;100.00
36972;BME280;40554;52.122;20.678;2023-01-16T09:32:40;99187.07;;;3.09;100.00
36972;BME280;40554;52.122;20.678;2023-01-16T09:34:57;99182.54;;;3.15;100.00
36972;BME280;40554;52.122;20.678;2023-01-16T09:37:14;99179.89;;;3.21;100.00
36972;BME280;40554;52.122;20.678;2023-01-16T09:39:32;99182.67;;;3.30;100.00
36972;BME280;40554;52.122;20.678;2023-01-16T09:45:07;99175.77;;;3.47;100.00
36972;BME280;40554;52.122;20.678;2023-01-16T09:47:30;99170.09;;;3.55;100.00
36972;BME280;40554;52.122;20.678;2023-01-16T09:49:51;99172.71;;;3.61;100.00
36972;BME280;40554;52.122;20.678;2023-01-16T09:52:13;99170.43;;;3.70;100.00
36972;BME280;40554;52.122;20.678;2023-01-16T09:54:55;99161.59;;;3.80;100.00
36972;BME280;40554;52.122;20.678;2023-01-16T09:57:49;99161.66;;;3.96;100.00
36972;BME280;40554;52.122;20.678;2023-01-16T10:00:29;99157.75;;;4.17;100.00
36972;BME280;40554;52.122;20.678;2023-01-16T10:02:46;99155.84;;;4.37;100.00
36972;BME280;40554;52.122;20.678;2023-01-16T10:05:04;99156.36;;;4.48;100.00
36972;BME280;40554;52.122;20.678;2023-01-16T10:10:32;99152.88;;;4.53;100.00
36972;BME280;40554;52.122;20.678;2023-01-16T10:21:06;99140.52;;;4.60;100.00
36972;BME280;40554;52.122;20.678;2023-01-16T10:23:52;99130.69;;;4.61;100.00
36972;BME280;40554;52.122;20.678;2023-01-16T10:31:30;99115.23;;;4.51;100.00
36972;BME280;40554;52.122;20.678;2023-01-16T10:34:14;99113.94;;;4.49;100.00
36972;BME280;40554;52.122;20.678;2023-01-16T10:36:36;99110.48;;;4.49;100.00
36972;BME280;40554;52.122;20.678;2023-01-16T10:38:56;99112.46;;;4.51;100.00
36972;BME280;40554;52.122;20.678;2023-01-16T10:41:19;99107.70;;;4.48;100.00
36972;BME280;40554;52.122;20.678;2023-01-16T10:43:55;99102.17;;;4.45;100.00
36972;BME280;40554;52.122;20.678;2023-01-16T10:46:31;99095.02;;;4.41;100.00
36972;BME280;40554;52.122;20.678;2023-01-16T10:49:14;99088.05;;;4.38;100.00
36972;BME280;40554;52.122;20.678;2023-01-16T10:51:44;99083.45;;;4.36;100.00
36972;BME280;40554;52.122;20.678;2023-01-16T10:54:01;99073.63;;;4.36;100.00
36972;BME280;40554;52.122;20.678;2023-01-16T10:56:19;99069.70;;;4.38;100.00
36972;BME280;40554;52.122;20.678;2023-01-16T10:58:37;99068.23;;;4.39;100.00
36972;BME280;40554;52.122;20.678;2023-01-16T11:01:05;99065.91;;;4.37;100.00
36972;BME280;40554;52.122;20.678;2023-01-16T11:03:36;99064.81;;;4.37;100.00
36972;BME280;40554;52.122;20.678;2023-01-16T11:06:21;99059.11;;;4.39;100.00
36972;BME280;40554;52.122;20.678;2023-01-16T11:08:41;99055.54;;;4.40;100.00
36972;BME280;40554;52.122;20.678;2023-01-16T11:10:58;99052.17;;;4.41;100.00
36972;BME280;40554;52.122;20.678;2023-01-16T11:13:21;99046.04;;;4.44;100.00
36972;BME280;40554;52.122;20.678;2023-01-16T11:18:48;99045.61;;;4.45;100.00
36972;BME280;40554;52.122;20.678;2023-01-16T11:21:22;99038.23;;;4.45;100.00
36972;BME280;40554;52.122;20.678;2023-01-16T11:23:44;99030.77;;;4.47;100.00
36972;BME280;40554;52.122;20.678;2023-01-16T11:26:04;99023.85;;;4.46;100.00
36972;BME280;40554;52.122;20.678;2023-01-16T11:28:25;99023.53;;;4.46;100.00
36972;BME280;40554;52.122;20.678;2023-01-16T11:30:45;99020.96;;;4.44;100.00
36972;BME280;40554;52.122;20.678;2023-01-16T11:33:03;99022.85;;;4.43;100.00
36972;BME280;40554;52.122;20.678;2023-01-16T11:35:33;99020.05;;;4.43;100.00
36972;BME280;40554;52.122;20.678;2023-01-16T11:37:52;99014.09;;;4.43;100.00
36972;BME280;40554;52.122;20.678;2023-01-16T11:40:18;99007.30;;;4.39;100.00
36972;BME280;40554;52.122;20.678;2023-01-16T11:42:59;98996.14;;;4.36;100.00
36972;BME280;40554;52.122;20.678;2023-01-16T11:45:46;98989.27;;;4.32;100.00
36972;BME280;40554;52.122;20.678;2023-01-16T11:48:19;98982.39;;;4.30;100.00
36972;BME280;40554;52.122;20.678;2023-01-16T11:50:47;98974.02;;;4.27;100.00
36972;BME280;40554;52.122;20.678;2023-01-16T11:53:05;98967.38;;;4.24;100.00
36972;BME280;40554;52.122;20.678;2023-01-16T11:55:28;98962.27;;;4.21;100.00
36972;BME280;40554;52.122;20.678;2023-01-16T12:03:23;98957.55;;;4.19;100.00
36972;BME280;40554;52.122;20.678;2023-01-16T12:14:22;98956.44;;;4.19;100.00
36972;BME280;40554;52.122;20.678;2023-01-16T12:17:14;98957.23;;;4.21;100.00
36972;BME280;40554;52.122;20.678;2023-01-16T12:20:58;98954.27;;;4.21;100.00
36972;BME280;40554;52.122;20.678;2023-01-16T12:25:33;98951.94;;;4.16;100.00
36972;BME280;40554;52.122;20.678;2023-01-16T12:28:04;98948.02;;;4.15;100.00
36972;BME280;40554;52.122;20.678;2023-01-16T12:39:35;98935.48;;;4.00;100.00
36972;BME280;40554;52.122;20.678;2023-01-16T12:42:12;98929.66;;;3.98;100.00
36972;BME280;40554;52.122;20.678;2023-01-16T12:45:16;98924.95;;;3.98;100.00
36972;BME280;40554;52.122;20.678;2023-01-16T12:55:37;98903.91;;;3.91;100.00
36972;BME280;40554;52.122;20.678;2023-01-16T12:58:30;98899.61;;;3.90;100.00
36972;BME280;40554;52.122;20.678;2023-01-16T13:03:45;98898.34;;;3.88;100.00
36972;BME280;40554;52.122;20.678;2023-01-16T13:06:12;98900.48;;;3.87;100.00
36972;BME280;40554;52.122;20.678;2023-01-16T13:08:35;98893.44;;;3.88;100.00
36972;BME280;40554;52.122;20.678;2023-01-16T13:11:01;98889.77;;;3.88;100.00
36972;BME280;40554;52.122;20.678;2023-01-16T13:13:53;98883.09;;;3.89;100.00
36972;BME280;40554;52.122;20.678;2023-01-16T13:16:30;98881.91;;;3.91;100.00
36972;BME280;40554;52.122;20.678;2023-01-16T13:18:56;98881.73;;;3.90;100.00
36972;BME280;40554;52.122;20.678;2023-01-16T13:21:19;98883.60;;;3.91;100.00
36972;BME280;40554;52.122;20.678;2023-01-16T13:23:52;98875.92;;;3.94;100.00
36972;BME280;40554;52.122;20.678;2023-01-16T13:26:15;98878.31;;;3.97;100.00
36972;BME280;40554;52.122;20.678;2023-01-16T13:30:59;98863.39;;;4.01;100.00
36972;BME280;40554;52.122;20.678;2023-01-16T13:33:20;98860.80;;;4.00;100.00
36972;BME280;40554;52.122;20.678;2023-01-16T13:39:34;98853.88;;;4.02;100.00
36972;BME280;40554;52.122;20.678;2023-01-16T13:41:35;98855.80;;;4.02;100.00
36972;BME280;40554;52.122;20.678;2023-01-16T13:44:07;98851.64;;;3.99;100.00
36972;BME280;40554;52.122;20.678;2023-01-16T13:46:44;98851.33;;;3.96;100.00
36972;BME280;40554;52.122;20.678;2023-01-16T13:49:06;98847.16;;;3.95;100.00
36972;BME280;40554;52.122;20.678;2023-01-16T13:51:26;98849.27;;;3.95;100.00
36972;BME280;40554;52.122;20.678;2023-01-16T13:53:50;98850.31;;;3.95;100.00
36972;BME280;40554;52.122;20.678;2023-01-16T13:56:12;98843.08;;;3.94;100.00
36972;BME280;40554;52.122;20.678;2023-01-16T13:58:30;98841.92;;;3.92;100.00
36972;BME280;40554;52.122;20.678;2023-01-16T14:01:00;98835.04;;;3.91;100.00
36972;BME280;40554;52.122;20.678;2023-01-16T14:03:29;98836.01;;;3.89;100.00
36972;BME280;40554;52.122;20.678;2023-01-16T14:05:51;98829.30;;;3.85;100.00
36972;BME280;40554;52.122;20.678;2023-01-16T14:13:25;98816.27;;;3.65;100.00
36972;BME280;40554;52.122;20.678;2023-01-16T14:21:41;98807.81;;;3.44;100.00
36972;BME280;40554;52.122;20.678;2023-01-16T14:24:19;98800.48;;;3.39;100.00